createdAt,value
2022-12-08T00:02:19.633Z,4.43
2022-12-08T00:07:39.797Z,4.40
2022-12-08T00:12:41.503Z,4.43
2022-12-08T00:17:43.238Z,4.35
2022-12-08T00:22:44.912Z,4.38
2022-12-08T00:27:46.563Z,4.70
2022-12-08T00:32:48.320Z,4.55
2022-12-08T00:37:49.985Z,4.53
2022-12-08T00:42:51.724Z,4.45
2022-12-08T00:47:53.410Z,4.82
2022-12-08T00:52:55.124Z,5.43
2022-12-08T00:57:56.789Z,4.93
2022-12-08T01:02:58.544Z,4.97
2022-12-08T01:08:00.283Z,4.75
2022-12-08T01:13:02.011Z,5.15
2022-12-08T01:18:03.778Z,5.05
2022-12-08T01:23:05.439Z,5.47
2022-12-08T01:28:07.089Z,5.65
2022-12-08T01:33:08.742Z,5.25
2022-12-08T01:38:10.398Z,4.82
2022-12-08T01:43:18.563Z,5.65
2022-12-08T01:48:27.108Z,4.97
2022-12-08T01:53:35.021Z,4.85
2022-12-08T01:58:41.387Z,4.88
2022-12-08T02:03:55.162Z,4.82
2022-12-08T02:08:59.349Z,4.95
2022-12-08T02:14:04.516Z,4.70
2022-12-08T02:19:30.470Z,4.70
2022-12-08T02:24:42.330Z,4.10
2022-12-08T02:29:50.196Z,4.60
2022-12-08T02:35:10.908Z,4.55
2022-12-08T02:40:20.535Z,4.55
2022-12-08T02:45:28.134Z,4.13
2022-12-08T02:50:30.144Z,4.20
2022-12-08T02:56:02.153Z,4.43
2022-12-08T03:01:35.665Z,4.03
2022-12-08T03:06:50.275Z,4.47
2022-12-08T03:12:30.718Z,3.90
2022-12-08T03:17:33.184Z,3.80
2022-12-08T03:22:34.958Z,3.83
2022-12-08T03:27:36.707Z,4.10
2022-12-08T03:33:01.076Z,4.10
2022-12-08T03:38:07.416Z,4.07
2022-12-08T03:43:09.543Z,4.28
2022-12-08T03:48:11.205Z,3.88
2022-12-08T03:53:12.872Z,4.38
2022-12-08T03:58:14.551Z,4.35
2022-12-08T04:03:16.294Z,4.30
2022-12-08T04:08:18.034Z,4.78
2022-12-08T04:13:19.781Z,4.60
2022-12-08T04:18:21.491Z,4.45
2022-12-08T04:23:23.198Z,4.47
2022-12-08T04:28:24.908Z,5.50
2022-12-08T04:33:26.640Z,5.30
2022-12-08T04:38:28.474Z,4.78
2022-12-08T04:43:30.396Z,5.13
2022-12-08T04:48:32.092Z,5.13
2022-12-08T04:53:33.812Z,5.30
2022-12-08T04:58:35.477Z,5.65
2022-12-08T05:03:37.407Z,5.30
2022-12-08T05:08:39.194Z,5.35
2022-12-08T05:13:40.956Z,5.25
2022-12-08T05:18:43.428Z,5.50
2022-12-08T05:23:45.105Z,5.93
2022-12-08T05:28:46.899Z,6.03
2022-12-08T05:33:50.440Z,6.07
2022-12-08T05:38:52.137Z,5.70
2022-12-08T05:43:53.871Z,5.82
2022-12-08T05:48:55.644Z,6.13
2022-12-08T05:53:58.083Z,6.22
2022-12-08T05:58:59.814Z,6.00
2022-12-08T06:04:03.933Z,6.07
2022-12-08T06:09:06.391Z,5.88
2022-12-08T06:14:12.064Z,5.90
2022-12-08T06:19:13.766Z,6.22
2022-12-08T06:24:15.437Z,7.97
2022-12-08T06:29:17.141Z,5.72
2022-12-08T06:34:19.318Z,6.53
2022-12-08T06:39:20.972Z,5.57
2022-12-08T06:44:22.889Z,6.72
2022-12-08T06:49:24.587Z,6.20
2022-12-08T06:54:26.570Z,6.07
2022-12-08T06:59:28.264Z,6.97
2022-12-08T07:04:29.998Z,6.78
2022-12-08T07:09:31.730Z,7.30
2022-12-08T07:14:33.417Z,6.93
2022-12-08T07:19:35.096Z,7.80
2022-12-08T07:24:36.781Z,7.70
2022-12-08T07:29:38.592Z,6.57
2022-12-08T07:34:40.232Z,6.57
2022-12-08T07:39:41.951Z,7.78
2022-12-08T07:44:43.606Z,6.10
2022-12-08T07:49:45.252Z,5.63
2022-12-08T07:54:47.639Z,5.40
2022-12-08T07:59:49.354Z,5.45
2022-12-08T08:04:51.574Z,5.65
2022-12-08T08:09:54.036Z,5.50
2022-12-08T08:14:55.752Z,5.65
2022-12-08T08:19:57.704Z,6.65
2022-12-08T08:24:59.452Z,5.63
2022-12-08T08:30:01.164Z,5.80
2022-12-08T08:35:03.439Z,4.90
2022-12-08T08:40:06.001Z,5.13
2022-12-08T08:45:08.347Z,5.15
2022-12-08T08:50:10.253Z,5.45
2022-12-08T08:55:11.936Z,4.93
2022-12-08T09:00:15.771Z,4.63
2022-12-08T09:05:18.598Z,5.03
2022-12-08T09:10:20.326Z,5.40
2022-12-08T09:15:22.005Z,4.95
2022-12-08T09:20:23.815Z,4.55
2022-12-08T09:25:25.548Z,4.65
2022-12-08T09:30:27.216Z,4.85
2022-12-08T09:35:28.915Z,4.82
2022-12-08T09:40:35.093Z,5.28
2022-12-08T09:45:37.771Z,4.90
2022-12-08T09:50:45.301Z,5.63
2022-12-08T09:55:55.609Z,5.22
2022-12-08T10:00:57.544Z,5.65
2022-12-08T10:06:24.782Z,6.60
2022-12-08T10:11:40.943Z,6.20
2022-12-08T10:16:48.457Z,6.70
2022-12-08T10:21:50.788Z,5.60
2022-12-08T10:26:53.691Z,5.93
2022-12-08T10:31:58.683Z,6.50
2022-12-08T10:37:00.916Z,6.53
2022-12-08T10:42:22.966Z,7.10
2022-12-08T10:47:27.389Z,6.20
2022-12-08T10:52:29.094Z,6.50
2022-12-08T10:57:30.764Z,6.05
2022-12-08T11:02:32.574Z,6.55
2022-12-08T11:07:34.343Z,6.28
2022-12-08T11:12:37.524Z,6.00
2022-12-08T11:17:39.455Z,6.13
2022-12-08T11:22:46.408Z,6.07
2022-12-08T11:27:50.228Z,6.03
2022-12-08T11:33:17.866Z,5.93
2022-12-08T11:38:26.264Z,6.10
2022-12-08T11:43:34.421Z,6.03
2022-12-08T11:48:47.786Z,5.10
2022-12-08T11:53:49.440Z,6.05
2022-12-08T11:58:56.649Z,6.53
2022-12-08T12:04:07.217Z,5.78
2022-12-08T12:09:12.989Z,6.32
2022-12-08T12:14:36.398Z,5.40
2022-12-08T12:19:39.878Z,5.20
2022-12-08T12:24:45.342Z,5.85
2022-12-08T12:30:18.995Z,5.45
2022-12-08T12:35:42.369Z,5.60
2022-12-08T12:40:44.500Z,5.68
2022-12-08T12:45:46.565Z,5.05
2022-12-08T12:50:52.652Z,5.85
2022-12-08T12:56:00.295Z,5.65
2022-12-08T13:01:13.616Z,5.32
2022-12-08T13:06:32.417Z,5.63
2022-12-08T13:11:54.214Z,5.32
2022-12-08T13:16:59.098Z,6.15
2022-12-08T13:22:01.331Z,5.18
2022-12-08T13:27:06.109Z,5.30
2022-12-08T13:32:27.765Z,4.97
2022-12-08T13:37:54.012Z,4.32
2022-12-08T13:43:04.108Z,4.85
2022-12-08T13:48:42.292Z,5.28
2022-12-08T13:59:20.789Z,5.45
2022-12-08T14:09:47.057Z,4.75
2022-12-08T14:15:04.734Z,4.55
2022-12-08T14:20:12.940Z,4.97
2022-12-08T14:25:16.292Z,5.25
2022-12-08T14:30:26.047Z,5.43
2022-12-08T14:35:36.847Z,4.97
2022-12-08T14:40:41.489Z,5.95
2022-12-08T14:45:43.148Z,5.47
2022-12-08T14:51:02.065Z,5.32
2022-12-08T14:56:28.188Z,5.38
2022-12-08T15:01:30.420Z,4.82
2022-12-08T15:06:32.172Z,6.03
2022-12-08T15:11:35.614Z,5.00
2022-12-08T15:16:38.875Z,5.68
2022-12-08T15:21:40.693Z,6.13
2022-12-08T15:26:50.130Z,5.82
2022-12-08T15:31:54.267Z,6.63
2022-12-08T15:36:56.060Z,5.32
2022-12-08T15:41:58.196Z,5.43
2022-12-08T15:47:00.607Z,5.15
2022-12-08T15:52:11.302Z,4.50
2022-12-08T16:03:18.764Z,4.30
2022-12-08T16:08:44.736Z,4.20
2022-12-08T16:14:15.097Z,4.22
2022-12-08T16:19:14.553Z,4.35
2022-12-08T16:24:16.219Z,4.20
2022-12-08T16:29:20.707Z,3.40
2022-12-08T16:34:22.376Z,2.13
2022-12-08T16:39:24.178Z,2.13
2022-12-08T16:44:26.518Z,1.80
2022-12-08T16:49:28.173Z,1.20
2022-12-08T16:54:29.872Z,2.63
2022-12-08T16:59:31.573Z,2.33
2022-12-08T17:04:33.820Z,4.03
2022-12-08T17:09:35.627Z,1.90
2022-12-08T17:14:37.329Z,1.55
2022-12-08T17:19:39.099Z,1.65
2022-12-08T17:24:40.735Z,2.90
2022-12-08T17:29:42.427Z,2.17
2022-12-08T17:34:44.517Z,2.70
2022-12-08T17:39:46.291Z,3.20
2022-12-08T17:44:47.969Z,2.72
2022-12-08T17:49:49.730Z,2.20
2022-12-08T17:54:51.471Z,2.15
2022-12-08T17:59:53.205Z,2.70
2022-12-08T18:04:54.987Z,2.70
2022-12-08T18:09:56.765Z,3.13
2022-12-08T18:14:58.420Z,3.50
2022-12-08T18:20:00.084Z,3.20
2022-12-08T18:25:01.839Z,3.25
2022-12-08T18:30:04.200Z,3.00
2022-12-08T18:35:06.921Z,3.60
2022-12-08T18:40:09.849Z,3.03
2022-12-08T18:45:11.683Z,2.35
2022-12-08T18:50:13.407Z,2.80
2022-12-08T18:55:15.538Z,2.60
2022-12-08T19:00:19.204Z,2.67
2022-12-08T19:05:20.983Z,2.88
2022-12-08T19:10:22.738Z,3.72
2022-12-08T19:15:24.412Z,4.10
2022-12-08T19:20:27.448Z,5.65
2022-12-08T19:25:29.128Z,5.18
2022-12-08T19:30:32.238Z,5.53
2022-12-08T19:35:33.930Z,6.25
2022-12-08T19:40:54.096Z,6.57
2022-12-08T19:45:55.887Z,5.57
2022-12-08T19:50:57.901Z,5.88
2022-12-08T19:55:59.626Z,5.35
2022-12-08T20:01:01.315Z,4.93
2022-12-08T20:06:03.017Z,5.15
2022-12-08T20:11:04.794Z,4.55
2022-12-08T20:16:07.297Z,4.80
2022-12-08T20:21:10.792Z,4.38
2022-12-08T20:26:13.378Z,3.95
2022-12-08T20:31:28.866Z,4.22
2022-12-08T20:36:31.340Z,4.35
2022-12-08T20:41:38.751Z,4.47
2022-12-08T20:46:44.988Z,4.80
2022-12-08T20:51:49.884Z,4.57
2022-12-08T20:56:51.692Z,5.53
2022-12-08T21:01:54.102Z,5.05
2022-12-08T21:06:56.046Z,4.97
2022-12-08T21:11:57.853Z,5.13
2022-12-08T21:16:59.941Z,4.47
2022-12-08T21:22:02.154Z,5.20
2022-12-08T21:27:03.964Z,4.88
2022-12-08T21:32:06.135Z,5.50
2022-12-08T21:37:08.034Z,5.82
2022-12-08T21:42:33.878Z,5.60
2022-12-08T21:47:37.750Z,6.10
2022-12-08T21:52:41.167Z,5.63
2022-12-08T21:57:43.161Z,5.45
2022-12-08T22:02:45.997Z,5.55
2022-12-08T22:07:48.036Z,5.80
2022-12-08T22:12:50.127Z,6.30
2022-12-08T22:17:51.896Z,6.75
2022-12-08T22:22:53.814Z,7.40
2022-12-08T22:27:55.590Z,7.07
2022-12-08T22:32:57.604Z,6.38
2022-12-08T22:37:59.523Z,7.88
2022-12-08T22:43:01.692Z,7.68
2022-12-08T22:48:03.858Z,7.10
2022-12-08T22:53:05.878Z,7.95
2022-12-08T22:58:08.065Z,7.78
2022-12-08T23:03:09.881Z,8.50
2022-12-08T23:08:15.938Z,8.77
2022-12-08T23:13:18.606Z,6.95
2022-12-08T23:18:20.623Z,6.05
2022-12-08T23:23:22.341Z,6.75
2022-12-08T23:28:24.231Z,6.50
2022-12-08T23:33:25.984Z,6.57
2022-12-08T23:38:27.655Z,6.60
2022-12-08T23:43:29.491Z,7.22
2022-12-08T23:48:34.452Z,7.70
2022-12-08T23:53:36.484Z,8.18
2022-12-08T23:58:38.998Z,8.07
